sensor_id;sensor_type;location;lat;lon;timestamp;pressure;altitude;pressure_sealevel;temperature;humidity
46394;BME280;32099;53.588;10.176;2023-01-27T00:00:48;102057.09;;;4.97;85.45
46394;BME280;32099;53.588;10.176;2023-01-27T00:03:17;102063.03;;;5.02;84.85
46394;BME280;32099;53.588;10.176;2023-01-27T00:05:43;102066.59;;;5.03;85.29
46394;BME280;32099;53.588;10.176;2023-01-27T00:08:09;102074.50;;;5.06;85.02
46394;BME280;32099;53.588;10.176;2023-01-27T00:10:34;102071.66;;;5.07;85.32
46394;BME280;32099;53.588;10.176;2023-01-27T00:13:00;102074.25;;;5.09;85.07
46394;BME280;32099;53.588;10.176;2023-01-27T00:15:44;102069.84;;;5.08;85.29
46394;BME280;32099;53.588;10.176;2023-01-27T00:18:09;102066.16;;;5.09;85.33
46394;BME280;32099;53.588;10.176;2023-01-27T00:20:34;102078.03;;;5.06;85.27
46394;BME280;32099;53.588;10.176;2023-01-27T00:23:20;102064.66;;;5.05;85.39
46394;BME280;32099;53.588;10.176;2023-01-27T00:26:06;102076.56;;;5.02;85.76
46394;BME280;32099;53.588;10.176;2023-01-27T00:28:34;102081.00;;;5.03;85.57
46394;BME280;32099;53.588;10.176;2023-01-27T00:31:01;102081.84;;;5.04;86.18
46394;BME280;32099;53.588;10.176;2023-01-27T00:33:27;102075.34;;;5.06;85.68
46394;BME280;32099;53.588;10.176;2023-01-27T00:38:30;102089.25;;;5.13;85.19
46394;BME280;32099;53.588;10.176;2023-01-27T00:40:56;102084.75;;;5.14;86.02
46394;BME280;32099;53.588;10.176;2023-01-27T00:43:43;102086.56;;;5.13;85.52
46394;BME280;32099;53.588;10.176;2023-01-27T00:46:09;102095.56;;;5.14;85.59
46394;BME280;32099;53.588;10.176;2023-01-27T00:48:35;102101.94;;;5.13;85.81
46394;BME280;32099;53.588;10.176;2023-01-27T00:51:00;102094.66;;;5.13;85.58
46394;BME280;32099;53.588;10.176;2023-01-27T00:53:25;102095.78;;;5.10;86.35
46394;BME280;32099;53.588;10.176;2023-01-27T00:55:51;102103.75;;;5.12;86.25
46394;BME280;32099;53.588;10.176;2023-01-27T00:58:16;102096.66;;;5.11;86.63
46394;BME280;32099;53.588;10.176;2023-01-27T01:00:41;102103.88;;;5.10;86.17
46394;BME280;32099;53.588;10.176;2023-01-27T01:03:07;102102.69;;;5.15;85.89
46394;BME280;32099;53.588;10.176;2023-01-27T01:05:32;102110.69;;;5.16;86.48
46394;BME280;32099;53.588;10.176;2023-01-27T01:07:57;102113.25;;;5.18;85.96
46394;BME280;32099;53.588;10.176;2023-01-27T01:10:23;102110.34;;;5.21;86.28
46394;BME280;32099;53.588;10.176;2023-01-27T01:12:48;102107.63;;;5.21;85.79
46394;BME280;32099;53.588;10.176;2023-01-27T01:15:13;102104.06;;;5.20;86.23
46394;BME280;32099;53.588;10.176;2023-01-27T01:17:39;102108.84;;;5.17;86.25
46394;BME280;32099;53.588;10.176;2023-01-27T01:20:04;102124.97;;;5.18;85.84
46394;BME280;32099;53.588;10.176;2023-01-27T01:22:29;102123.97;;;5.19;85.92
46394;BME280;32099;53.588;10.176;2023-01-27T01:24:55;102110.47;;;5.19;86.40
46394;BME280;32099;53.588;10.176;2023-01-27T01:27:20;102124.97;;;5.18;86.52
46394;BME280;32099;53.588;10.176;2023-01-27T01:29:45;102122.13;;;5.20;85.79
46394;BME280;32099;53.588;10.176;2023-01-27T01:32:11;102128.41;;;5.20;86.56
46394;BME280;32099;53.588;10.176;2023-01-27T01:34:36;102124.84;;;5.20;86.52
46394;BME280;32099;53.588;10.176;2023-01-27T01:37:02;102128.50;;;5.19;86.46
46394;BME280;32099;53.588;10.176;2023-01-27T01:39:28;102128.28;;;5.22;86.95
46394;BME280;32099;53.588;10.176;2023-01-27T01:41:55;102130.38;;;5.18;86.54
46394;BME280;32099;53.588;10.176;2023-01-27T01:44:21;102131.56;;;5.14;87.22
46394;BME280;32099;53.588;10.176;2023-01-27T01:46:48;102132.44;;;5.15;86.78
46394;BME280;32099;53.588;10.176;2023-01-27T01:49:13;102137.94;;;5.13;87.14
46394;BME280;32099;53.588;10.176;2023-01-27T01:51:45;102139.94;;;5.11;87.06
46394;BME280;32099;53.588;10.176;2023-01-27T01:54:32;102140.91;;;5.10;87.13
46394;BME280;32099;53.588;10.176;2023-01-27T01:57:03;102133.63;;;5.10;87.33
46394;BME280;32099;53.588;10.176;2023-01-27T01:59:41;102139.03;;;5.10;87.26
46394;BME280;32099;53.588;10.176;2023-01-27T02:02:10;102147.16;;;5.10;87.55
46394;BME280;32099;53.588;10.176;2023-01-27T02:04:43;102145.19;;;5.13;87.24
46394;BME280;32099;53.588;10.176;2023-01-27T02:07:21;102143.47;;;5.12;87.52
46394;BME280;32099;53.588;10.176;2023-01-27T02:09:52;102153.53;;;5.09;87.22
46394;BME280;32099;53.588;10.176;2023-01-27T02:12:20;102147.16;;;5.10;87.69
46394;BME280;32099;53.588;10.176;2023-01-27T02:14:45;102144.31;;;5.12;87.18
46394;BME280;32099;53.588;10.176;2023-01-27T02:17:10;102147.28;;;5.09;87.38
46394;BME280;32099;53.588;10.176;2023-01-27T02:19:44;102144.56;;;5.09;86.84
46394;BME280;32099;53.588;10.176;2023-01-27T02:22:23;102144.56;;;5.09;87.12
46394;BME280;32099;53.588;10.176;2023-01-27T02:24:58;102159.06;;;5.08;87.00
46394;BME280;32099;53.588;10.176;2023-01-27T02:27:30;102158.19;;;5.07;86.90
46394;BME280;32099;53.588;10.176;2023-01-27T02:29:56;102160.03;;;5.07;86.93
46394;BME280;32099;53.588;10.176;2023-01-27T02:32:25;102165.44;;;5.07;87.56
46394;BME280;32099;53.588;10.176;2023-01-27T02:34:51;102162.00;;;5.05;87.40
46394;BME280;32099;53.588;10.176;2023-01-27T02:37:18;102167.19;;;5.08;86.66
46394;BME280;32099;53.588;10.176;2023-01-27T02:39:44;102169.97;;;5.06;87.44
46394;BME280;32099;53.588;10.176;2023-01-27T02:42:13;102167.28;;;5.06;87.36
46394;BME280;32099;53.588;10.176;2023-01-27T02:44:41;102177.25;;;5.06;87.09
46394;BME280;32099;53.588;10.176;2023-01-27T02:47:06;102178.97;;;5.07;87.33
46394;BME280;32099;53.588;10.176;2023-01-27T02:49:31;102173.69;;;5.05;87.23
46394;BME280;32099;53.588;10.176;2023-01-27T02:51:57;102176.47;;;5.04;87.67
46394;BME280;32099;53.588;10.176;2023-01-27T02:54:23;102184.72;;;5.02;88.01
46394;BME280;32099;53.588;10.176;2023-01-27T02:56:50;102183.19;;;4.98;87.49
46394;BME280;32099;53.588;10.176;2023-01-27T02:59:16;102175.22;;;4.97;87.43
46394;BME280;32099;53.588;10.176;2023-01-27T03:01:41;102179.31;;;4.89;87.85
46394;BME280;32099;53.588;10.176;2023-01-27T03:04:06;102183.03;;;4.88;87.02
46394;BME280;32099;53.588;10.176;2023-01-27T03:06:33;102188.72;;;4.84;87.25
46394;BME280;32099;53.588;10.176;2023-01-27T03:08:58;102188.00;;;4.82;87.20
46394;BME280;32099;53.588;10.176;2023-01-27T03:11:23;102188.22;;;4.78;86.88
46394;BME280;32099;53.588;10.176;2023-01-27T03:14:07;102188.41;;;4.75;86.74
46394;BME280;32099;53.588;10.176;2023-01-27T03:16:33;102198.38;;;4.75;87.07
46394;BME280;32099;53.588;10.176;2023-01-27T03:19:17;102193.19;;;4.72;87.39
46394;BME280;32099;53.588;10.176;2023-01-27T03:21:43;102194.91;;;4.73;87.04
46394;BME280;32099;53.588;10.176;2023-01-27T03:24:09;102199.56;;;4.71;87.59
46394;BME280;32099;53.588;10.176;2023-01-27T03:26:35;102205.72;;;4.73;87.07
46394;BME280;32099;53.588;10.176;2023-01-27T03:29:02;102207.88;;;4.68;87.78
46394;BME280;32099;53.588;10.176;2023-01-27T03:31:46;102216.09;;;4.66;87.00
46394;BME280;32099;53.588;10.176;2023-01-27T03:34:12;102223.44;;;4.64;88.06
46394;BME280;32099;53.588;10.176;2023-01-27T03:36:37;102221.72;;;4.63;88.65
46394;BME280;32099;53.588;10.176;2023-01-27T03:39:20;102227.13;;;4.63;89.66
46394;BME280;32099;53.588;10.176;2023-01-27T03:42:04;102227.75;;;4.67;90.04
46394;BME280;32099;53.588;10.176;2023-01-27T03:44:48;102224.97;;;4.68;90.10
46394;BME280;32099;53.588;10.176;2023-01-27T03:47:32;102228.53;;;4.69;89.96
46394;BME280;32099;53.588;10.176;2023-01-27T03:49:57;102232.88;;;4.71;90.20
46394;BME280;32099;53.588;10.176;2023-01-27T03:52:22;102238.28;;;4.71;90.09
46394;BME280;32099;53.588;10.176;2023-01-27T03:54:48;102244.88;;;4.67;89.79
46394;BME280;32099;53.588;10.176;2023-01-27T03:57:13;102241.59;;;4.62;90.48
46394;BME280;32099;53.588;10.176;2023-01-27T03:59:38;102252.53;;;4.60;90.41
46394;BME280;32099;53.588;10.176;2023-01-27T04:02:04;102242.81;;;4.58;89.95
46394;BME280;32099;53.588;10.176;2023-01-27T04:04:48;102250.78;;;4.59;90.19
46394;BME280;32099;53.588;10.176;2023-01-27T04:07:35;102248.84;;;4.61;89.88
46394;BME280;32099;53.588;10.176;2023-01-27T04:10:01;102252.31;;;4.63;89.80
46394;BME280;32099;53.588;10.176;2023-01-27T04:12:27;102253.19;;;4.64;90.06
46394;BME280;32099;53.588;10.176;2023-01-27T04:14:52;102251.34;;;4.65;89.56
46394;BME280;32099;53.588;10.176;2023-01-27T04:17:18;102249.50;;;4.65;89.40
46394;BME280;32099;53.588;10.176;2023-01-27T04:19:43;102252.41;;;4.62;88.12
46394;BME280;32099;53.588;10.176;2023-01-27T04:22:10;102252.41;;;4.62;87.32
46394;BME280;32099;53.588;10.176;2023-01-27T04:24:36;102250.91;;;4.58;87.24
46394;BME280;32099;53.588;10.176;2023-01-27T04:27:06;102250.91;;;4.58;86.93
46394;BME280;32099;53.588;10.176;2023-01-27T04:29:34;102249.19;;;4.57;87.79
46394;BME280;32099;53.588;10.176;2023-01-27T04:32:01;102253.63;;;4.58;87.73
46394;BME280;32099;53.588;10.176;2023-01-27T04:34:30;102256.19;;;4.59;86.72
46394;BME280;32099;53.588;10.176;2023-01-27T04:36:55;102261.59;;;4.59;87.04
46394;BME280;32099;53.588;10.176;2023-01-27T04:39:21;102260.63;;;4.60;87.20
46394;BME280;32099;53.588;10.176;2023-01-27T04:41:47;102255.56;;;4.56;87.99
46394;BME280;32099;53.588;10.176;2023-01-27T04:44:13;102256.53;;;4.55;87.64
46394;BME280;32099;53.588;10.176;2023-01-27T04:46:39;102254.91;;;4.52;87.40
46394;BME280;32099;53.588;10.176;2023-01-27T04:49:05;102257.81;;;4.49;87.69
46394;BME280;32099;53.588;10.176;2023-01-27T04:51:31;102262.38;;;4.48;86.92
46394;BME280;32099;53.588;10.176;2023-01-27T04:53:56;102267.97;;;4.45;88.06
46394;BME280;32099;53.588;10.176;2023-01-27T04:56:29;102271.66;;;4.44;87.59
46394;BME280;32099;53.588;10.176;2023-01-27T04:58:57;102271.97;;;4.40;87.42
46394;BME280;32099;53.588;10.176;2023-01-27T05:01:24;102281.03;;;4.39;87.57
46394;BME280;32099;53.588;10.176;2023-01-27T05:03:49;102284.81;;;4.36;87.65
46394;BME280;32099;53.588;10.176;2023-01-27T05:06:15;102293.88;;;4.35;87.43
46394;BME280;32099;53.588;10.176;2023-01-27T05:08:40;102285.97;;;4.32;87.20
46394;BME280;32099;53.588;10.176;2023-01-27T05:11:06;102294.28;;;4.29;86.74
46394;BME280;32099;53.588;10.176;2023-01-27T05:13:31;102297.19;;;4.26;87.02
46394;BME280;32099;53.588;10.176;2023-01-27T05:16:07;102291.78;;;4.26;87.07
46394;BME280;32099;53.588;10.176;2023-01-27T05:18:44;102292.97;;;4.22;87.02
46394;BME280;32099;53.588;10.176;2023-01-27T05:21:12;102297.63;;;4.20;86.93
46394;BME280;32099;53.588;10.176;2023-01-27T05:23:40;102314.97;;;4.15;86.59
46394;BME280;32099;53.588;10.176;2023-01-27T05:28:33;102297.94;;;4.15;86.84
46394;BME280;32099;53.588;10.176;2023-01-27T05:31:00;102299.66;;;4.16;86.68
46394;BME280;32099;53.588;10.176;2023-01-27T05:33:29;102289.72;;;4.16;86.80
46394;BME280;32099;53.588;10.176;2023-01-27T05:35:57;102284.44;;;4.15;85.84
46394;BME280;32099;53.588;10.176;2023-01-27T05:38:24;102291.66;;;4.14;85.60
46394;BME280;32099;53.588;10.176;2023-01-27T05:40:53;102299.00;;;4.12;85.54
46394;BME280;32099;53.588;10.176;2023-01-27T05:43:19;102296.38;;;4.11;85.62
46394;BME280;32099;53.588;10.176;2023-01-27T05:45:44;102294.00;;;4.06;85.55
46394;BME280;32099;53.588;10.176;2023-01-27T05:48:09;102286.53;;;3.97;85.03
46394;BME280;32099;53.588;10.176;2023-01-27T05:50:34;102298.47;;;3.93;84.81
46394;BME280;32099;53.588;10.176;2023-01-27T05:53:00;102296.00;;;3.90;85.50
46394;BME280;32099;53.588;10.176;2023-01-27T05:55:25;102299.09;;;3.83;84.54
46394;BME280;32099;53.588;10.176;2023-01-27T05:57:50;102309.22;;;3.80;85.09
46394;BME280;32099;53.588;10.176;2023-01-27T06:00:16;102313.06;;;3.76;85.08
46394;BME280;32099;53.588;10.176;2023-01-27T06:02:41;102310.59;;;3.73;85.25
46394;BME280;32099;53.588;10.176;2023-01-27T06:05:07;102325.13;;;3.70;85.47
46394;BME280;32099;53.588;10.176;2023-01-27T06:07:32;102326.03;;;3.70;86.01
46394;BME280;32099;53.588;10.176;2023-01-27T06:09:58;102322.25;;;3.73;85.50
46394;BME280;32099;53.588;10.176;2023-01-27T06:12:23;102326.38;;;3.79;85.42
46394;BME280;32099;53.588;10.176;2023-01-27T06:14:48;102327.16;;;3.81;85.46
46394;BME280;32099;53.588;10.176;2023-01-27T06:17:13;102325.88;;;3.86;85.91
46394;BME280;32099;53.588;10.176;2023-01-27T06:19:39;102329.34;;;3.89;86.22
46394;BME280;32099;53.588;10.176;2023-01-27T06:22:04;102334.75;;;3.89;86.32
46394;BME280;32099;53.588;10.176;2023-01-27T06:24:29;102342.44;;;3.95;85.72
46394;BME280;32099;53.588;10.176;2023-01-27T06:26:55;102347.94;;;3.93;85.47
46394;BME280;32099;53.588;10.176;2023-01-27T06:29:20;102349.75;;;3.93;85.82
46394;BME280;32099;53.588;10.176;2023-01-27T06:31:46;102355.09;;;3.94;85.42
46394;BME280;32099;53.588;10.176;2023-01-27T06:34:11;102355.84;;;3.96;86.02
46394;BME280;32099;53.588;10.176;2023-01-27T06:36:36;102355.16;;;3.93;85.13
46394;BME280;32099;53.588;10.176;2023-01-27T06:39:01;102359.53;;;3.95;86.10
46394;BME280;32099;53.588;10.176;2023-01-27T06:41:27;102363.97;;;3.96;85.53
46394;BME280;32099;53.588;10.176;2023-01-27T06:43:52;102368.34;;;3.97;85.36
46394;BME280;32099;53.588;10.176;2023-01-27T06:46:17;102364.81;;;3.97;85.79
46394;BME280;32099;53.588;10.176;2023-01-27T06:48:42;102368.56;;;3.94;85.61
46394;BME280;32099;53.588;10.176;2023-01-27T06:51:08;102365.88;;;3.94;85.96
46394;BME280;32099;53.588;10.176;2023-01-27T06:53:33;102370.41;;;3.94;85.81
46394;BME280;32099;53.588;10.176;2023-01-27T06:56:01;102371.06;;;3.97;85.38
46394;BME280;32099;53.588;10.176;2023-01-27T06:58:27;102377.44;;;3.96;85.43
46394;BME280;32099;53.588;10.176;2023-01-27T07:00:52;102382.28;;;3.91;85.85
46394;BME280;32099;53.588;10.176;2023-01-27T07:03:17;102387.84;;;3.88;85.92
46394;BME280;32099;53.588;10.176;2023-01-27T07:05:43;102386.13;;;3.87;85.99
46394;BME280;32099;53.588;10.176;2023-01-27T07:08:08;102393.91;;;3.92;85.87
46394;BME280;32099;53.588;10.176;2023-01-27T07:10:34;102407.41;;;3.92;85.39
46394;BME280;32099;53.588;10.176;2023-01-27T07:13:06;102408.28;;;3.92;86.22
46394;BME280;32099;53.588;10.176;2023-01-27T07:15:32;102412.72;;;3.93;85.53
46394;BME280;32099;53.588;10.176;2023-01-27T07:17:59;102422.47;;;3.96;85.53
46394;BME280;32099;53.588;10.176;2023-01-27T07:20:25;102415.13;;;3.98;85.96
46394;BME280;32099;53.588;10.176;2023-01-27T07:22:56;102433.06;;;3.99;85.42
46394;BME280;32099;53.588;10.176;2023-01-27T07:25:23;102430.44;;;3.97;85.84
46394;BME280;32099;53.588;10.176;2023-01-27T07:27:49;102427.09;;;3.94;86.06
46394;BME280;32099;53.588;10.176;2023-01-27T07:30:14;102434.34;;;3.93;85.62
46394;BME280;32099;53.588;10.176;2023-01-27T07:32:39;102434.34;;;3.93;85.77
46394;BME280;32099;53.588;10.176;2023-01-27T07:35:05;102434.50;;;3.90;85.63
46394;BME280;32099;53.588;10.176;2023-01-27T07:37:30;102441.94;;;3.86;85.43
46394;BME280;32099;53.588;10.176;2023-01-27T07:39:56;102445.59;;;3.85;85.79
46394;BME280;32099;53.588;10.176;2023-01-27T07:42:21;102432.00;;;3.87;85.58
46394;BME280;32099;53.588;10.176;2023-01-27T07:44:46;102441.84;;;3.88;85.69
46394;BME280;32099;53.588;10.176;2023-01-27T07:47:11;102439.06;;;3.90;85.14
46394;BME280;32099;53.588;10.176;2023-01-27T07:49:37;102452.16;;;3.96;85.38
46394;BME280;32099;53.588;10.176;2023-01-27T07:52:02;102451.00;;;4.00;85.30
46394;BME280;32099;53.588;10.176;2023-01-27T07:54:27;102449.94;;;4.03;85.01
46394;BME280;32099;53.588;10.176;2023-01-27T07:56:52;102440.97;;;4.02;84.89
46394;BME280;32099;53.588;10.176;2023-01-27T07:59:18;102443.16;;;4.10;85.00
46394;BME280;32099;53.588;10.176;2023-01-27T08:01:43;102460.31;;;4.09;85.01
46394;BME280;32099;53.588;10.176;2023-01-27T08:04:09;102451.38;;;4.08;84.60
46394;BME280;32099;53.588;10.176;2023-01-27T08:06:36;102453.88;;;4.11;84.45
46394;BME280;32099;53.588;10.176;2023-01-27T08:09:03;102450.00;;;4.15;84.52
46394;BME280;32099;53.588;10.176;2023-01-27T08:11:28;102461.69;;;4.16;84.55
46394;BME280;32099;53.588;10.176;2023-01-27T08:13:53;102461.88;;;4.13;84.37
46394;BME280;32099;53.588;10.176;2023-01-27T08:16:19;102455.50;;;4.14;84.95
46394;BME280;32099;53.588;10.176;2023-01-27T08:18:44;102465.22;;;4.16;84.74
46394;BME280;32099;53.588;10.176;2023-01-27T08:21:10;102465.66;;;4.10;84.31
46394;BME280;32099;53.588;10.176;2023-01-27T08:23:36;102458.13;;;4.01;85.01
46394;BME280;32099;53.588;10.176;2023-01-27T08:26:02;102467.97;;;4.02;84.99
46394;BME280;32099;53.588;10.176;2023-01-27T08:28:30;102471.34;;;4.06;85.10
46394;BME280;32099;53.588;10.176;2023-01-27T08:31:10;102470.28;;;4.08;84.72
46394;BME280;32099;53.588;10.176;2023-01-27T08:33:37;102474.72;;;4.09;85.26
46394;BME280;32099;53.588;10.176;2023-01-27T08:36:05;102473.75;;;4.10;85.24
46394;BME280;32099;53.588;10.176;2023-01-27T08:38:36;102479.81;;;4.14;84.73
46394;BME280;32099;53.588;10.176;2023-01-27T08:41:03;102477.00;;;4.15;85.09
46394;BME280;32099;53.588;10.176;2023-01-27T08:43:33;102480.47;;;4.17;84.59
46394;BME280;32099;53.588;10.176;2023-01-27T08:45:58;102481.44;;;4.16;84.70
46394;BME280;32099;53.588;10.176;2023-01-27T08:48:25;102481.13;;;4.21;85.36
46394;BME280;32099;53.588;10.176;2023-01-27T08:50:51;102482.81;;;4.24;84.96
46394;BME280;32099;53.588;10.176;2023-01-27T08:53:17;102478.34;;;4.23;84.73
46394;BME280;32099;53.588;10.176;2023-01-27T08:55:42;102494.44;;;4.24;85.29
46394;BME280;32099;53.588;10.176;2023-01-27T08:58:07;102492.81;;;4.22;84.72
46394;BME280;32099;53.588;10.176;2023-01-27T09:00:33;102490.50;;;4.15;84.68
46394;BME280;32099;53.588;10.176;2023-01-27T09:02:58;102492.25;;;4.16;84.77
46394;BME280;32099;53.588;10.176;2023-01-27T09:05:23;102493.13;;;4.17;85.18
46394;BME280;32099;53.588;10.176;2023-01-27T09:07:48;102497.25;;;4.23;85.21
46394;BME280;32099;53.588;10.176;2023-01-27T09:10:14;102500.44;;;4.29;84.73
46394;BME280;32099;53.588;10.176;2023-01-27T09:12:40;102502.63;;;4.37;84.76
46394;BME280;32099;53.588;10.176;2023-01-27T09:15:06;102505.13;;;4.40;83.53
46394;BME280;32099;53.588;10.176;2023-01-27T09:17:32;102503.41;;;4.39;84.06
46394;BME280;32099;53.588;10.176;2023-01-27T09:19:57;102509.75;;;4.38;84.41
46394;BME280;32099;53.588;10.176;2023-01-27T09:22:22;102504.59;;;4.35;84.01
46394;BME280;32099;53.588;10.176;2023-01-27T09:24:48;102511.25;;;4.29;84.24
46394;BME280;32099;53.588;10.176;2023-01-27T09:27:13;102521.28;;;4.27;83.86
46394;BME280;32099;53.588;10.176;2023-01-27T09:29:38;102523.97;;;4.27;84.06
46394;BME280;32099;53.588;10.176;2023-01-27T09:32:04;102529.66;;;4.23;83.45
46394;BME280;32099;53.588;10.176;2023-01-27T09:34:29;102531.22;;;4.12;82.37
46394;BME280;32099;53.588;10.176;2023-01-27T09:36:56;102535.25;;;4.05;82.60
46394;BME280;32099;53.588;10.176;2023-01-27T09:39:26;102530.06;;;4.02;83.12
46394;BME280;32099;53.588;10.176;2023-01-27T09:47:12;102531.41;;;4.09;81.94
46394;BME280;32099;53.588;10.176;2023-01-27T09:52:38;102528.03;;;4.06;82.25
46394;BME280;32099;53.588;10.176;2023-01-27T09:55:21;102529.50;;;4.11;81.36
46394;BME280;32099;53.588;10.176;2023-01-27T09:58:00;102528.22;;;4.17;81.61
46394;BME280;32099;53.588;10.176;2023-01-27T10:00:41;102527.75;;;4.25;81.42
46394;BME280;32099;53.588;10.176;2023-01-27T10:03:21;102535.63;;;4.28;80.12
46394;BME280;32099;53.588;10.176;2023-01-27T10:11:47;102533.41;;;4.35;79.59
46394;BME280;32099;53.588;10.176;2023-01-27T10:14:31;102530.16;;;4.29;79.27
46394;BME280;32099;53.588;10.176;2023-01-27T10:17:10;102532.84;;;4.15;78.25
46394;BME280;32099;53.588;10.176;2023-01-27T10:20:00;102540.28;;;4.11;80.31
46394;BME280;32099;53.588;10.176;2023-01-27T10:22:41;102526.88;;;4.10;80.42
46394;BME280;32099;53.588;10.176;2023-01-27T10:25:24;102529.38;;;4.13;79.91
46394;BME280;32099;53.588;10.176;2023-01-27T10:28:16;102532.38;;;4.08;79.14
46394;BME280;32099;53.588;10.176;2023-01-27T10:30:50;102536.91;;;4.08;79.06
46394;BME280;32099;53.588;10.176;2023-01-27T10:33:28;102532.66;;;4.04;79.60
46394;BME280;32099;53.588;10.176;2023-01-27T10:36:43;102526.78;;;4.11;79.90
46394;BME280;32099;53.588;10.176;2023-01-27T10:41:33;102527.56;;;4.13;78.54
46394;BME280;32099;53.588;10.176;2023-01-27T10:44:31;102529.50;;;4.11;79.37
46394;BME280;32099;53.588;10.176;2023-01-27T10:50:16;102527.44;;;4.15;78.96
46394;BME280;32099;53.588;10.176;2023-01-27T10:55:40;102523.13;;;4.12;76.21
46394;BME280;32099;53.588;10.176;2023-01-27T10:58:23;102512.88;;;4.03;75.64
46394;BME280;32099;53.588;10.176;2023-01-27T11:01:03;102520.31;;;3.99;77.29
46394;BME280;32099;53.588;10.176;2023-01-27T11:03:35;102514.44;;;4.07;78.68
46394;BME280;32099;53.588;10.176;2023-01-27T11:06:06;102515.78;;;4.14;77.38
46394;BME280;32099;53.588;10.176;2023-01-27T11:08:37;102521.94;;;4.16;77.96
46394;BME280;32099;53.588;10.176;2023-01-27T11:11:06;102519.06;;;4.20;78.80
46394;BME280;32099;53.588;10.176;2023-01-27T11:13:53;102511.06;;;4.18;78.18
46394;BME280;32099;53.588;10.176;2023-01-27T11:16:26;102516.34;;;4.20;78.38
46394;BME280;32099;53.588;10.176;2023-01-27T11:18:57;102520.22;;;4.15;76.67
46394;BME280;32099;53.588;10.176;2023-01-27T11:21:29;102521.09;;;4.16;78.40
46394;BME280;32099;53.588;10.176;2023-01-27T11:23:56;102521.16;;;4.14;77.05
46394;BME280;32099;53.588;10.176;2023-01-27T11:26:38;102514.06;;;4.13;77.39
46394;BME280;32099;53.588;10.176;2023-01-27T11:32:03;102508.44;;;4.16;78.02
46394;BME280;32099;53.588;10.176;2023-01-27T11:34:40;102519.25;;;4.16;78.56
46394;BME280;32099;53.588;10.176;2023-01-27T11:39:50;102515.50;;;4.19;77.50
46394;BME280;32099;53.588;10.176;2023-01-27T11:42:16;102509.81;;;4.24;76.58
46394;BME280;32099;53.588;10.176;2023-01-27T11:44:42;102515.75;;;4.29;78.42
46394;BME280;32099;53.588;10.176;2023-01-27T11:47:21;102505.16;;;4.26;77.30
46394;BME280;32099;53.588;10.176;2023-01-27T11:49:50;102506.41;;;4.20;77.74
46394;BME280;32099;53.588;10.176;2023-01-27T11:52:18;102512.88;;;4.17;77.96
46394;BME280;32099;53.588;10.176;2023-01-27T11:55:00;102500.16;;;4.20;77.63
46394;BME280;32099;53.588;10.176;2023-01-27T11:57:28;102500.25;;;4.18;78.50
46394;BME280;32099;53.588;10.176;2023-01-27T12:00:02;102500.81;;;4.23;78.40
46394;BME280;32099;53.588;10.176;2023-01-27T12:02:35;102498.91;;;4.25;77.30
46394;BME280;32099;53.588;10.176;2023-01-27T12:05:10;102491.66;;;4.26;78.44
46394;BME280;32099;53.588;10.176;2023-01-27T12:07:55;102500.03;;;4.36;79.08
46394;BME280;32099;53.588;10.176;2023-01-27T12:13:00;102482.38;;;4.44;76.43
46394;BME280;32099;53.588;10.176;2023-01-27T12:15:32;102484.88;;;4.47;77.71
46394;BME280;32099;53.588;10.176;2023-01-27T12:18:14;102472.50;;;4.58;77.44
46394;BME280;32099;53.588;10.176;2023-01-27T12:20:43;102481.72;;;4.68;75.69
46394;BME280;32099;53.588;10.176;2023-01-27T12:23:15;102486.50;;;4.77;76.55
46394;BME280;32099;53.588;10.176;2023-01-27T12:25:47;102477.78;;;4.87;77.04
46394;BME280;32099;53.588;10.176;2023-01-27T12:28:20;102479.31;;;4.91;75.36
46394;BME280;32099;53.588;10.176;2023-01-27T12:30:50;102477.78;;;4.87;72.99
46394;BME280;32099;53.588;10.176;2023-01-27T12:33:20;102477.22;;;4.82;73.57
46394;BME280;32099;53.588;10.176;2023-01-27T12:35:50;102480.13;;;4.78;73.23
46394;BME280;32099;53.588;10.176;2023-01-27T12:38:18;102480.91;;;4.81;74.10
46394;BME280;32099;53.588;10.176;2023-01-27T12:40:45;102481.13;;;4.90;74.93
46394;BME280;32099;53.588;10.176;2023-01-27T12:43:17;102481.69;;;4.96;73.62
46394;BME280;32099;53.588;10.176;2023-01-27T12:48:30;102480.81;;;4.95;74.85
46394;BME280;32099;53.588;10.176;2023-01-27T12:51:05;102485.88;;;4.87;72.69
46394;BME280;32099;53.588;10.176;2023-01-27T12:53:39;102482.19;;;4.75;73.61
46394;BME280;32099;53.588;10.176;2023-01-27T12:56:12;102485.28;;;4.69;74.95
46394;BME280;32099;53.588;10.176;2023-01-27T13:03:57;102484.72;;;4.63;75.48
46394;BME280;32099;53.588;10.176;2023-01-27T13:06:41;102482.22;;;4.60;75.01
46394;BME280;32099;53.588;10.176;2023-01-27T13:09:24;102491.50;;;4.56;72.80
46394;BME280;32099;53.588;10.176;2023-01-27T13:12:01;102483.22;;;4.45;73.02
46394;BME280;32099;53.588;10.176;2023-01-27T13:14:40;102480.47;;;4.32;73.78
46394;BME280;32099;53.588;10.176;2023-01-27T13:22:47;102483.38;;;4.14;67.60
46394;BME280;32099;53.588;10.176;2023-01-27T13:25:18;102487.13;;;4.12;69.68
46394;BME280;32099;53.588;10.176;2023-01-27T13:27:47;102486.94;;;4.15;68.37
46394;BME280;32099;53.588;10.176;2023-01-27T13:30:18;102494.47;;;4.10;69.16
46394;BME280;32099;53.588;10.176;2023-01-27T13:32:51;102484.53;;;4.10;68.58
46394;BME280;32099;53.588;10.176;2023-01-27T13:35:30;102483.38;;;4.14;71.47
46394;BME280;32099;53.588;10.176;2023-01-27T13:40:54;102490.50;;;4.15;69.22
46394;BME280;32099;53.588;10.176;2023-01-27T13:43:21;102472.88;;;4.10;67.06
46394;BME280;32099;53.588;10.176;2023-01-27T13:45:54;102478.97;;;4.13;71.13
46394;BME280;32099;53.588;10.176;2023-01-27T13:51:24;102486.94;;;4.15;71.16
46394;BME280;32099;53.588;10.176;2023-01-27T13:54:00;102485.03;;;4.17;68.92
46394;BME280;32099;53.588;10.176;2023-01-27T13:56:37;102476.69;;;4.20;71.17